Time,TemperatureF,DewpointF,PressureIn,WindDirection,WindDirectionDegrees,WindSpeedMPH,WindSpeedGustMPH,Humidity,HourlyPrecipIn,Conditions,Clouds,dailyrainin,SoftwareType,DateUTC
2013-02-09 00:10:00,47.1,26.0,29.96,NE,40,12.0,19.0,44,0.00,,,0.08,weatherlink.com 1.10,2013-02-09 08:10:00,
2013-02-09 00:25:00,46.8,27.0,29.97,NNE,30,12.0,21.0,46,0.00,,,0.00,weatherlink.com 1.10,2013-02-09 08:25:00,
2013-02-09 00:40:00,46.7,27.0,29.96,NNW,335,9.0,20.0,47,0.00,,,0.00,weatherlink.com 1.10,2013-02-09 08:40:00,
2013-02-09 00:56:00,46.9,27.0,29.96,NNE,26,16.0,24.0,46,0.00,,,0.00,weatherlink.com 1.10,2013-02-09 08:56:00,
2013-02-09 01:11:00,46.4,27.0,29.97,North,5,4.0,15.0,48,0.00,,,0.00,weatherlink.com 1.10,2013-02-09 09:11:00,
2013-02-09 01:26:00,45.9,28.0,29.97,NE,54,10.0,13.0,49,0.00,,,0.00,weatherlink.com 1.10,2013-02-09 09:26:00,
2013-02-09 01:41:00,46.3,27.0,29.97,North,9,5.0,15.0,47,0.00,,,0.00,weatherlink.com 1.10,2013-02-09 09:41:00,
2013-02-09 01:56:00,46.2,27.0,29.98,NW,309,4.0,14.0,48,0.00,,,0.00,weatherlink.com 1.10,2013-02-09 09:56:00,
2013-02-09 02:11:00,46.0,27.0,29.98,North,357,7.0,12.0,47,0.00,,,0.00,weatherlink.com 1.10,2013-02-09 10:11:00,
2013-02-09 02:26:00,46.0,27.0,29.98,North,357,6.0,14.0,47,0.00,,,0.00,weatherlink.com 1.10,2013-02-09 10:26:00,
2013-02-09 02:41:00,45.8,26.0,29.98,NNE,15,10.0,12.0,47,0.00,,,0.00,weatherlink.com 1.10,2013-02-09 10:41:00,
2013-02-09 02:56:00,45.7,26.0,29.98,WNW,294,1.0,11.0,47,0.00,,,0.00,weatherlink.com 1.10,2013-02-09 10:56:00,
2013-02-09 03:11:00,45.6,26.0,29.98,NNE,13,3.0,10.0,47,0.00,,,0.00,weatherlink.com 1.10,2013-02-09 11:11:00,
2013-02-09 03:26:00,45.7,26.0,29.98,WSW,240,2.0,8.0,46,0.00,,,0.00,weatherlink.com 1.10,2013-02-09 11:26:00,
2013-02-09 03:41:00,45.7,26.0,29.98,SW,231,1.0,9.0,46,0.00,,,0.00,weatherlink.com 1.10,2013-02-09 11:41:00,
2013-02-09 03:56:00,45.6,26.0,29.98,West,268,2.0,9.0,46,0.00,,,0.00,weatherlink.com 1.10,2013-02-09 11:56:00,
2013-02-09 04:11:00,45.9,25.0,29.98,NNE,23,4.0,9.0,44,0.00,,,0.00,weatherlink.com 1.10,2013-02-09 12:11:00,
2013-02-09 04:26:00,46.0,25.0,29.98,North,5,6.0,10.0,44,0.00,,,0.00,weatherlink.com 1.10,2013-02-09 12:26:00,
2013-02-09 04:41:00,46.2,25.0,29.98,NNE,12,6.0,11.0,43,0.00,,,0.00,weatherlink.com 1.10,2013-02-09 12:41:00,
2013-02-09 04:56:00,45.9,25.0,29.98,WSW,253,2.0,8.0,44,0.00,,,0.00,weatherlink.com 1.10,2013-02-09 12:56:00,
2013-02-09 05:11:00,46.1,24.0,29.98,WNW,289,5.0,9.0,42,0.00,,,0.00,weatherlink.com 1.10,2013-02-09 13:11:00,
2013-02-09 05:26:00,46.4,24.0,29.98,West,269,4.0,8.0,41,0.00,,,0.00,weatherlink.com 1.10,2013-02-09 13:26:00,
2013-02-09 05:41:00,46.2,24.0,29.98,NW,314,6.0,7.0,41,0.00,,,0.00,weatherlink.com 1.10,2013-02-09 13:41:00,
2013-02-09 05:56:00,46.0,24.0,29.98,West,266,1.0,8.0,42,0.00,,,0.00,weatherlink.com 1.10,2013-02-09 13:56:00,
2013-02-09 06:11:00,46.3,24.0,29.98,SW,222,1.0,10.0,41,0.00,,,0.00,weatherlink.com 1.10,2013-02-09 14:11:00,
2013-02-09 06:26:00,46.3,23.0,29.99,North,350,6.0,11.0,40,0.00,,,0.00,weatherlink.com 1.10,2013-02-09 14:26:00,
2013-02-09 06:41:00,46.1,23.0,29.99,NNE,18,3.0,10.0,41,0.00,,,0.00,weatherlink.com 1.10,2013-02-09 14:41:00,
2013-02-09 06:56:00,45.7,23.0,29.99,NE,40,4.0,10.0,41,0.00,,,0.00,weatherlink.com 1.10,2013-02-09 14:56:00,
2013-02-09 07:11:00,46.1,23.0,29.99,NNE,27,10.0,11.0,41,0.00,,,0.00,weatherlink.com 1.10,2013-02-09 15:11:00,
2013-02-09 07:26:00,45.2,25.0,30.00,NE,40,4.0,11.0,46,0.00,,,0.00,weatherlink.com 1.10,2013-02-09 15:26:00,
2013-02-09 07:41:00,45.0,33.0,30.00,NE,54,3.0,5.0,64,0.00,,,0.00,weatherlink.com 1.10,2013-02-09 15:41:00,
2013-02-09 07:56:00,45.4,32.0,30.00,East,98,0.0,4.0,59,0.00,,,0.00,weatherlink.com 1.10,2013-02-09 15:56:00,
2013-02-09 08:11:00,46.2,32.0,30.01,ENE,64,4.0,5.0,59,0.00,,,0.00,weatherlink.com 1.10,2013-02-09 16:11:00,
2013-02-09 08:26:00,46.4,31.0,30.01,East,89,3.0,4.0,55,0.00,,,0.00,weatherlink.com 1.10,2013-02-09 16:26:00,
2013-02-09 08:41:00,48.3,32.0,30.02,SE,132,0.0,2.0,54,0.00,,,0.00,weatherlink.com 1.10,2013-02-09 16:41:00,
2013-02-09 08:56:00,48.3,36.0,30.02,NNE,29,1.0,3.0,62,0.00,,,0.00,weatherlink.com 1.10,2013-02-09 16:56:00,
2013-02-09 09:11:00,48.0,37.0,30.02,NNE,30,2.0,3.0,65,0.00,,,0.00,weatherlink.com 1.10,2013-02-09 17:11:00,
2013-02-09 09:27:00,47.7,36.0,30.02,NW,314,0.0,5.0,63,0.00,,,0.00,weatherlink.com 1.10,2013-02-09 17:27:00,
2013-02-09 09:42:00,49.1,38.0,30.02,ENE,65,5.0,6.0,66,0.00,,,0.00,weatherlink.com 1.10,2013-02-09 17:42:00,
2013-02-09 09:57:00,48.1,38.0,30.02,North,350,3.0,9.0,69,0.00,,,0.00,weatherlink.com 1.10,2013-02-09 17:57:00,
2013-02-09 10:12:00,46.7,38.0,30.02,East,91,2.0,6.0,72,0.00,,,0.00,weatherlink.com 1.10,2013-02-09 18:12:00,
2013-02-09 10:27:00,46.8,36.0,30.03,ENE,59,4.0,8.0,67,0.00,,,0.00,weatherlink.com 1.10,2013-02-09 18:27:00,
2013-02-09 10:42:00,47.4,38.0,30.03,ENE,70,4.0,6.0,70,0.00,,,0.00,weatherlink.com 1.10,2013-02-09 18:42:00,
2013-02-09 10:57:00,48.6,38.0,30.03,East,91,2.0,5.0,66,0.00,,,0.00,weatherlink.com 1.10,2013-02-09 18:57:00,
2013-02-09 11:12:00,49.1,31.0,30.03,NE,34,2.0,10.0,51,0.00,,,0.00,weatherlink.com 1.10,2013-02-09 19:12:00,
2013-02-09 11:27:00,49.7,34.0,30.03,East,101,1.0,4.0,55,0.00,,,0.00,weatherlink.com 1.10,2013-02-09 19:27:00,
2013-02-09 11:42:00,49.3,30.0,30.03,NNW,346,1.0,6.0,47,0.00,,,0.00,weatherlink.com 1.10,2013-02-09 19:42:00,
2013-02-09 11:57:00,49.5,29.0,30.03,North,360,6.0,9.0,45,0.00,,,0.00,weatherlink.com 1.10,2013-02-09 19:57:00,
2013-02-09 12:12:00,49.6,30.0,30.02,ENE,73,2.0,10.0,47,0.00,,,0.00,weatherlink.com 1.10,2013-02-09 20:12:00,
2013-02-09 12:27:00,50.2,27.0,30.02,NE,41,9.0,10.0,41,0.00,,,0.00,weatherlink.com 1.10,2013-02-09 20:27:00,
2013-02-09 12:42:00,50.6,30.0,30.02,NW,318,0.0,3.0,46,0.00,,,0.00,weatherlink.com 1.10,2013-02-09 20:42:00,
2013-02-09 12:57:00,52.2,27.0,30.02,WSW,243,2.0,4.0,38,0.00,,,0.00,weatherlink.com 1.10,2013-02-09 20:57:00,
2013-02-09 13:12:00,53.2,37.0,30.02,SW,233,3.0,7.0,55,0.00,,,0.00,weatherlink.com 1.10,2013-02-09 21:12:00,
2013-02-09 13:27:00,52.5,38.0,30.02,SSW,212,9.0,11.0,59,0.00,,,0.00,weatherlink.com 1.10,2013-02-09 21:27:00,
2013-02-09 13:42:00,51.7,38.0,30.01,SW,231,10.0,13.0,59,0.00,,,0.00,weatherlink.com 1.10,2013-02-09 21:42:00,
2013-02-09 13:57:00,52.4,37.0,30.01,SW,214,8.0,10.0,57,0.00,,,0.00,weatherlink.com 1.10,2013-02-09 21:57:00,
2013-02-09 14:12:00,51.8,37.0,30.00,SW,234,10.0,12.0,57,0.00,,,0.00,weatherlink.com 1.10,2013-02-09 22:12:00,
2013-02-09 14:27:00,51.8,35.0,30.00,SW,228,6.0,12.0,53,0.00,,,0.00,weatherlink.com 1.10,2013-02-09 22:27:00,
2013-02-09 14:42:00,51.7,32.0,30.00,WSW,248,7.0,11.0,47,0.00,,,0.00,weatherlink.com 1.10,2013-02-09 22:42:00,
2013-02-09 14:57:00,52.6,34.0,30.00,WSW,238,8.0,14.0,49,0.00,,,0.00,weatherlink.com 1.10,2013-02-09 22:57:00,
2013-02-09 15:12:00,53.3,34.0,30.00,West,260,9.0,13.0,49,0.00,,,0.00,weatherlink.com 1.10,2013-02-09 23:12:00,
2013-02-09 15:27:00,53.1,34.0,30.00,SW,228,12.0,13.0,48,0.00,,,0.00,weatherlink.com 1.10,2013-02-09 23:27:00,
2013-02-09 15:42:00,52.5,32.0,30.00,WSW,257,8.0,14.0,46,0.00,,,0.00,weatherlink.com 1.10,2013-02-09 23:42:00,
2013-02-09 15:58:00,52.3,32.0,30.00,WSW,253,9.0,13.0,46,0.00,,,0.00,weatherlink.com 1.10,2013-02-09 23:58:00,
2013-02-09 16:12:00,52.0,32.0,30.00,SW,220,8.0,12.0,47,0.00,,,0.00,weatherlink.com 1.10,2013-02-10 00:12:00,
2013-02-09 16:27:00,51.3,32.0,30.00,SW,236,12.0,13.0,48,0.00,,,0.00,weatherlink.com 1.10,2013-02-10 00:27:00,
2013-02-09 16:42:00,51.2,31.0,30.00,WSW,238,9.0,12.0,47,0.00,,,0.00,weatherlink.com 1.10,2013-02-10 00:42:00,
2013-02-09 16:57:00,50.3,31.0,30.01,WSW,250,11.0,12.0,48,0.00,,,0.00,weatherlink.com 1.10,2013-02-10 00:57:00,
2013-02-09 17:12:00,49.1,30.0,30.00,WSW,238,12.0,14.0,48,0.00,,,0.00,weatherlink.com 1.10,2013-02-10 01:12:00,
2013-02-09 17:27:00,47.9,29.0,30.00,West,276,10.0,14.0,49,0.00,,,0.00,weatherlink.com 1.10,2013-02-10 01:27:00,
2013-02-09 17:42:00,46.8,29.0,30.00,WSW,255,11.0,13.0,50,0.00,,,0.00,weatherlink.com 1.10,2013-02-10 01:42:00,
2013-02-09 17:57:00,46.4,28.0,30.01,West,262,12.0,13.0,49,0.00,,,0.00,weatherlink.com 1.10,2013-02-10 01:57:00,
2013-02-09 18:12:00,46.4,26.0,30.02,WSW,250,10.0,13.0,45,0.00,,,0.00,weatherlink.com 1.10,2013-02-10 02:12:00,
2013-02-09 18:27:00,46.3,26.0,30.02,WSW,257,11.0,12.0,45,0.00,,,0.00,weatherlink.com 1.10,2013-02-10 02:27:00,
2013-02-09 18:42:00,46.1,26.0,30.02,WSW,245,11.0,11.0,45,0.00,,,0.00,weatherlink.com 1.10,2013-02-10 02:42:00,
2013-02-09 18:57:00,46.0,26.0,30.03,SW,229,10.0,12.0,45,0.00,,,0.00,weatherlink.com 1.10,2013-02-10 02:57:00,
2013-02-09 19:12:00,45.7,25.0,30.03,WSW,240,9.0,11.0,45,0.00,,,0.00,weatherlink.com 1.10,2013-02-10 03:12:00,
2013-02-09 19:27:00,45.8,25.0,30.03,SW,235,7.0,12.0,44,0.00,,,0.00,weatherlink.com 1.10,2013-02-10 03:27:00,
2013-02-09 19:42:00,46.4,24.0,30.04,WSW,249,8.0,10.0,42,0.00,,,0.00,weatherlink.com 1.10,2013-02-10 03:42:00,
2013-02-09 19:57:00,46.5,24.0,30.04,WSW,257,7.0,9.0,41,0.00,,,0.00,weatherlink.com 1.10,2013-02-10 03:57:00,
2013-02-09 20:12:00,47.5,23.0,30.04,West,271,6.0,10.0,39,0.00,,,0.00,weatherlink.com 1.10,2013-02-10 04:12:00,
2013-02-09 20:27:00,48.9,27.0,30.05,NNW,337,1.0,6.0,42,0.00,,,0.00,weatherlink.com 1.10,2013-02-10 04:27:00,
2013-02-09 20:42:00,49.5,28.0,30.05,North,351,1.0,3.0,43,0.00,,,0.00,weatherlink.com 1.10,2013-02-10 04:42:00,
2013-02-09 20:57:00,48.8,28.0,30.05,North,354,0.0,1.0,44,0.00,,,0.00,weatherlink.com 1.10,2013-02-10 04:57:00,
2013-02-09 21:12:00,47.8,24.0,30.05,SW,222,0.0,2.0,39,0.00,,,0.00,weatherlink.com 1.10,2013-02-10 05:12:00,
2013-02-09 21:27:00,47.3,24.0,30.05,WSW,250,3.0,4.0,40,0.00,,,0.00,weatherlink.com 1.10,2013-02-10 05:27:00,
2013-02-09 21:42:00,46.7,26.0,30.05,WSW,238,4.0,4.0,44,0.00,,,0.00,weatherlink.com 1.10,2013-02-10 05:42:00,
2013-02-09 21:57:00,47.7,25.0,30.05,West,263,5.0,6.0,42,0.00,,,0.00,weatherlink.com 1.10,2013-02-10 05:57:00,
2013-02-09 22:12:00,48.7,23.0,30.05,WSW,253,5.0,6.0,37,0.00,,,0.00,weatherlink.com 1.10,2013-02-10 06:12:00,
2013-02-09 22:27:00,48.4,22.0,30.05,WSW,253,6.0,6.0,36,0.00,,,0.00,weatherlink.com 1.10,2013-02-10 06:27:00,
2013-02-09 22:42:00,47.9,21.0,30.05,WSW,257,6.0,7.0,35,0.00,,,0.00,weatherlink.com 1.10,2013-02-10 06:42:00,
2013-02-09 22:57:00,46.6,23.0,30.05,WSW,243,7.0,7.0,40,0.00,,,0.00,weatherlink.com 1.10,2013-02-10 06:57:00,
2013-02-09 23:13:00,45.9,26.0,30.04,WSW,248,9.0,9.0,46,0.00,,,0.00,weatherlink.com 1.10,2013-02-10 07:13:00,
2013-02-09 23:29:00,44.8,32.0,30.04,WSW,243,11.0,11.0,62,0.00,,,0.00,weatherlink.com 1.10,2013-02-10 07:29:00,
2013-02-09 23:43:00,44.3,38.0,30.04,WSW,247,9.0,10.0,78,0.00,,,0.00,weatherlink.com 1.10,2013-02-10 07:43:00,
2013-02-09 23:58:00,44.0,40.0,30.05,WSW,245,10.0,10.0,86,0.00,,,0.00,weatherlink.com 1.10,2013-02-10 07:58:00,